Time;durP1;ratioP1;P1;durP2;ratioP2;P2;SDS_P1;SDS_P2;PMS_P1;PMS_P2;Temp;Humidity;BMP_temperature;BMP_pressure;BME280_temperature;BME280_humidity;BME280_pressure;Samples;Min_cycle;Max_cycle;Signal;HPM_P1;HPM_P2
2024/03/12 00:01:56;;;;;;;0.00;0.00;;;23.00;51.20;;;;;;5047135;28;20223;-48
2024/03/12 00:04:28;;;;;;;0.00;0.00;;;23.00;51.00;;;;;;5048298;28;20643;-46
2024/03/12 00:06:59;;;;;;;0.00;0.00;;;23.00;51.20;;;;;;5047741;28;20267;-51
2024/03/12 00:09:31;;;;;;;0.10;0.10;;;23.10;51.40;;;;;;5047961;28;20590;-44
2024/03/12 00:12:03;;;;;;;0.00;0.00;;;23.10;51.40;;;;;;5047301;28;20510;-46
2024/03/12 00:14:34;;;;;;;0.00;0.00;;;23.10;51.50;;;;;;5048183;28;20818;-46
2024/03/12 00:17:06;;;;;;;0.10;0.10;;;23.20;51.50;;;;;;5048074;28;20620;-47
2024/03/12 00:19:36;;;;;;;0.10;0.10;;;23.20;51.50;;;;;;5047876;28;20197;-45
2024/03/12 00:22:07;;;;;;;0.00;0.00;;;23.30;51.50;;;;;;5048545;28;20219;-45
2024/03/12 00:24:40;;;;;;;0.10;0.10;;;23.30;51.60;;;;;;5046031;28;20306;-46
2024/03/12 00:27:13;;;;;;;0.10;0.10;;;23.30;51.60;;;;;;5047387;28;20594;-44
2024/03/12 00:29:45;;;;;;;0.00;0.00;;;23.40;51.60;;;;;;5047488;28;20650;-45
2024/03/12 00:32:17;;;;;;;0.03;0.03;;;23.40;51.70;;;;;;5046755;28;20273;-46
2024/03/12 00:34:47;;;;;;;0.10;0.10;;;23.40;51.50;;;;;;5047633;28;20210;-45
2024/03/12 00:37:18;;;;;;;0.10;0.10;;;23.40;51.50;;;;;;5046639;28;20199;-50
2024/03/12 00:39:49;;;;;;;0.00;0.00;;;23.40;51.40;;;;;;5047282;28;20203;-45
2024/03/12 00:42:22;;;;;;;0.00;0.00;;;23.40;52.00;;;;;;5046857;28;20219;-49
2024/03/12 00:44:53;;;;;;;0.05;0.05;;;23.50;51.50;;;;;;5032828;28;20200;-46
2024/03/12 00:47:24;;;;;;;0.00;0.00;;;23.50;51.40;;;;;;5027231;28;20749;-46
2024/03/12 00:49:54;;;;;;;0.10;0.10;;;23.50;51.30;;;;;;5027909;28;20719;-46
2024/03/12 00:52:25;;;;;;;0.00;0.00;;;23.50;51.40;;;;;;5028019;28;20220;-47
2024/03/12 00:54:56;;;;;;;0.10;0.10;;;23.60;51.40;;;;;;5040017;28;20211;-48
2024/03/12 00:57:30;;;;;;;0.00;0.00;;;23.60;51.30;;;;;;5046999;28;20191;-49
2024/03/12 01:00:00;;;;;;;0.00;0.00;;;23.60;51.30;;;;;;5046859;28;20638;-45
2024/03/12 01:02:32;;;;;;;0.00;0.00;;;23.70;51.50;;;;;;5046915;28;20255;-44
2024/03/12 01:05:04;;;;;;;0.00;0.00;;;23.70;51.50;;;;;;5047026;28;20290;-45
2024/03/12 01:07:34;;;;;;;0.00;0.00;;;23.70;51.40;;;;;;5047476;28;20203;-44
2024/03/12 01:10:05;;;;;;;0.05;0.05;;;23.70;51.40;;;;;;5046254;28;20257;-45
2024/03/12 01:12:38;;;;;;;0.03;0.03;;;23.70;51.40;;;;;;5030779;28;20502;-53
2024/03/12 01:15:09;;;;;;;0.00;0.00;;;23.70;51.50;;;;;;5027187;28;20306;-57
2024/03/12 01:17:40;;;;;;;0.00;0.00;;;23.80;51.50;;;;;;5026923;28;20222;-49
2024/03/12 01:20:11;;;;;;;0.00;0.00;;;23.80;51.50;;;;;;5045161;28;20199;-43
2024/03/12 01:22:41;;;;;;;0.00;0.00;;;23.80;51.50;;;;;;5046328;28;20696;-50
2024/03/12 01:25:12;;;;;;;0.00;0.00;;;23.80;51.60;;;;;;5051734;28;20199;-45
2024/03/12 01:27:45;;;;;;;0.00;0.00;;;23.80;51.50;;;;;;5050999;28;20646;-47
2024/03/12 01:30:16;;;;;;;0.00;0.00;;;23.90;51.60;;;;;;5051578;28;20658;-45
2024/03/12 01:32:47;;;;;;;0.00;0.00;;;23.90;51.60;;;;;;5050796;28;20207;-45
2024/03/12 01:35:20;;;;;;;0.00;0.00;;;23.90;51.70;;;;;;5051224;28;20734;-49
2024/03/12 01:37:51;;;;;;;0.10;0.10;;;24.00;51.70;;;;;;5051639;28;20200;-47
2024/03/12 01:40:25;;;;;;;0.00;0.00;;;24.00;51.60;;;;;;5050781;28;20257;-50
2024/03/12 01:43:01;;;;;;;0.00;0.00;;;24.00;51.50;;;;;;5051095;28;20973;-47
2024/03/12 01:45:33;;;;;;;0.00;0.00;;;24.00;51.50;;;;;;5050296;28;20195;-43
2024/03/12 01:48:07;;;;;;;0.00;0.00;;;24.00;51.40;;;;;;5051128;28;20191;-46
2024/03/12 01:50:39;;;;;;;0.00;0.00;;;24.00;51.40;;;;;;5050942;28;20294;-47
2024/03/12 01:53:10;;;;;;;0.00;0.00;;;24.10;51.60;;;;;;5051540;28;20227;-46
2024/03/12 01:55:42;;;;;;;0.00;0.00;;;24.10;51.60;;;;;;5050131;28;20203;-48
2024/03/12 01:58:17;;;;;;;0.00;0.00;;;24.10;51.40;;;;;;5050104;28;20202;-44
2024/03/12 02:00:48;;;;;;;0.00;0.00;;;24.10;51.40;;;;;;5050523;28;20219;-46
2024/03/12 02:03:19;;;;;;;0.00;0.00;;;24.20;51.50;;;;;;5049884;28;20286;-46
2024/03/12 02:05:49;;;;;;;0.00;0.00;;;24.20;51.50;;;;;;5050616;28;20852;-45
2024/03/12 02:08:21;;;;;;;0.00;0.00;;;24.20;51.50;;;;;;5050347;28;20667;-43
2024/03/12 02:10:52;;;;;;;0.00;0.00;;;24.20;51.50;;;;;;5050825;28;20322;-47
2024/03/12 02:13:24;;;;;;;0.08;0.08;;;24.20;51.40;;;;;;5050601;28;20288;-47
2024/03/12 02:15:56;;;;;;;0.00;0.00;;;24.30;51.40;;;;;;5050303;28;20220;-46
2024/03/12 02:18:26;;;;;;;0.00;0.00;;;24.30;51.30;;;;;;5050474;28;20195;-44
2024/03/12 02:20:57;;;;;;;0.00;0.00;;;24.30;51.20;;;;;;5049156;28;20743;-44
2024/03/12 02:23:38;;;;;;;0.00;0.00;;;24.30;51.20;;;;;;5048437;28;20389;-44
2024/03/12 02:26:09;;;;;;;0.00;0.00;;;24.30;51.10;;;;;;5048872;28;20706;-52
2024/03/12 02:28:40;;;;;;;0.10;0.10;;;24.30;51.00;;;;;;5049564;28;20215;-49
2024/03/12 02:31:12;;;;;;;0.00;0.00;;;24.30;50.90;;;;;;5049592;28;20243;-45
2024/03/12 02:33:42;;;;;;;0.00;0.00;;;24.30;50.90;;;;;;5045905;28;20204;-46
2024/03/12 02:36:13;;;;;;;0.00;0.00;;;24.40;51.00;;;;;;5040012;28;20265;-44
2024/03/12 02:38:46;;;;;;;0.10;0.10;;;24.40;50.90;;;;;;5040989;28;20192;-47
2024/03/12 02:41:21;;;;;;;0.05;0.05;;;24.40;50.90;;;;;;5041353;28;20227;-44
2024/03/12 02:43:52;;;;;;;0.10;0.10;;;24.40;50.80;;;;;;5039458;28;20535;-47
2024/03/12 02:46:24;;;;;;;0.00;0.00;;;24.40;50.70;;;;;;5029789;28;20255;-49
2024/03/12 02:48:55;;;;;;;0.00;0.00;;;24.40;50.70;;;;;;5039205;28;20726;-49
2024/03/12 02:51:26;;;;;;;0.00;0.00;;;24.40;50.60;;;;;;5049973;28;20229;-48
2024/03/12 02:53:58;;;;;;;0.00;0.00;;;24.40;50.60;;;;;;5049415;28;20207;-46
2024/03/12 02:56:31;;;;;;;0.00;0.00;;;24.40;50.60;;;;;;5050190;28;20922;-44
2024/03/12 02:59:03;;;;;;;0.00;0.00;;;24.40;50.50;;;;;;5049325;28;20207;-45
2024/03/12 03:01:33;;;;;;;0.00;0.00;;;24.40;50.50;;;;;;5050094;28;20226;-47
2024/03/12 03:04:04;;;;;;;0.00;0.00;;;24.40;50.50;;;;;;5049100;28;20203;-45
2024/03/12 03:06:34;;;;;;;0.00;0.00;;;24.40;50.50;;;;;;5048724;28;20231;-45
2024/03/12 03:09:09;;;;;;;0.00;0.00;;;24.40;50.50;;;;;;5050245;28;20701;-46
2024/03/12 03:11:40;;;;;;;0.00;0.00;;;24.40;50.50;;;;;;5048699;28;20219;-47
2024/03/12 03:14:10;;;;;;;0.00;0.00;;;24.40;50.50;;;;;;5050241;28;20203;-46
2024/03/12 03:16:41;;;;;;;0.10;0.10;;;24.40;50.50;;;;;;5048402;28;20205;-47
2024/03/12 03:19:12;;;;;;;0.10;0.10;;;24.40;50.50;;;;;;5043088;28;20199;-45
2024/03/12 03:21:43;;;;;;;0.00;0.00;;;24.30;50.50;;;;;;5048916;28;20223;-47
2024/03/12 03:24:15;;;;;;;0.00;0.00;;;24.40;50.50;;;;;;5049736;28;20210;-50
2024/03/12 03:26:46;;;;;;;0.00;0.00;;;24.30;50.40;;;;;;5046295;28;20306;-43
2024/03/12 03:29:17;;;;;;;0.10;0.10;;;24.30;50.40;;;;;;5030098;28;20307;-51
2024/03/12 03:31:48;;;;;;;0.00;0.00;;;24.40;50.50;;;;;;5029497;28;20227;-51
2024/03/12 03:34:19;;;;;;;0.00;0.00;;;24.40;50.50;;;;;;5038432;28;20196;-44
2024/03/12 03:36:49;;;;;;;0.10;0.10;;;24.40;50.50;;;;;;5048752;28;20218;-45
2024/03/12 03:39:24;;;;;;;0.10;0.10;;;24.40;50.60;;;;;;5048407;28;20699;-44
2024/03/12 03:41:55;;;;;;;0.10;0.10;;;24.30;50.50;;;;;;5048493;28;20218;-45
2024/03/12 03:44:28;;;;;;;0.10;0.10;;;24.30;50.50;;;;;;5048407;28;20199;-48
2024/03/12 03:46:58;;;;;;;0.10;0.10;;;24.30;50.40;;;;;;5048132;28;20234;-45
2024/03/12 03:49:29;;;;;;;0.00;0.00;;;24.30;50.50;;;;;;5047684;28;20280;-45
2024/03/12 03:52:00;;;;;;;0.10;0.10;;;24.30;50.50;;;;;;5048790;28;20705;-44
2024/03/12 03:54:32;;;;;;;0.00;0.00;;;24.30;50.50;;;;;;5049333;28;20199;-49
2024/03/12 03:57:03;;;;;;;0.00;0.00;;;24.30;50.50;;;;;;5047954;28;20253;-48
2024/03/12 03:59:34;;;;;;;0.05;0.05;;;24.30;50.50;;;;;;5048207;28;20231;-47
2024/03/12 04:02:05;;;;;;;0.10;0.10;;;24.30;50.50;;;;;;5047870;28;20294;-48
2024/03/12 04:04:36;;;;;;;0.10;0.10;;;24.30;50.50;;;;;;5047887;28;20659;-47
2024/03/12 04:07:07;;;;;;;0.08;0.08;;;24.30;50.50;;;;;;5047979;28;20230;-45
2024/03/12 04:09:40;;;;;;;0.00;0.00;;;24.30;50.50;;;;;;5048488;28;20601;-48
2024/03/12 04:12:11;;;;;;;0.00;0.00;;;24.30;50.40;;;;;;5048569;28;20223;-45
2024/03/12 04:14:42;;;;;;;0.03;0.03;;;24.30;50.40;;;;;;5037386;28;20212;-49
2024/03/12 04:17:13;;;;;;;0.00;0.00;;;24.30;50.30;;;;;;5039956;28;20228;-50
2024/03/12 04:19:47;;;;;;;0.00;0.00;;;24.40;50.40;;;;;;5048271;28;20199;-49
2024/03/12 04:22:19;;;;;;;0.00;0.00;;;24.30;50.30;;;;;;5048886;28;20218;-44
2024/03/12 04:24:52;;;;;;;0.10;0.10;;;24.30;50.30;;;;;;5048096;28;20206;-44
2024/03/12 04:27:23;;;;;;;0.03;0.03;;;24.30;50.30;;;;;;5048166;28;20231;-44
2024/03/12 04:29:53;;;;;;;0.10;0.10;;;24.30;50.30;;;;;;5046980;28;20195;-44
2024/03/12 04:32:27;;;;;;;0.00;0.00;;;24.40;50.30;;;;;;5048528;28;20694;-48
2024/03/12 04:34:58;;;;;;;0.00;0.00;;;24.40;50.30;;;;;;5047566;28;20536;-44
2024/03/12 04:37:31;;;;;;;0.00;0.00;;;24.40;50.30;;;;;;5038325;28;20200;-46
2024/03/12 04:40:06;;;;;;;0.00;0.00;;;24.40;50.80;;;;;;5039972;28;20199;-45
2024/03/12 04:42:38;;;;;;;0.00;0.00;;;24.40;50.20;;;;;;5044581;28;20298;-44
2024/03/12 04:45:09;;;;;;;0.00;0.00;;;24.40;50.20;;;;;;5047778;28;20203;-50
2024/03/12 04:47:40;;;;;;;0.00;0.00;;;24.40;50.20;;;;;;5047276;28;20231;-47
2024/03/12 04:50:13;;;;;;;0.00;0.00;;;24.40;50.40;;;;;;5048831;28;20203;-46
2024/03/12 04:52:44;;;;;;;0.03;0.03;;;24.40;50.10;;;;;;5047656;28;20269;-45
2024/03/12 04:55:17;;;;;;;0.00;0.00;;;24.40;50.70;;;;;;5042355;28;20280;-45
2024/03/12 04:57:48;;;;;;;0.00;0.00;;;24.40;50.00;;;;;;5047652;28;20290;-51
2024/03/12 05:00:21;;;;;;;0.00;0.00;;;24.40;50.00;;;;;;5047422;28;20875;-44
2024/03/12 05:02:52;;;;;;;0.00;0.00;;;24.40;50.00;;;;;;5048191;28;20615;-45
2024/03/12 05:05:23;;;;;;;0.00;0.00;;;24.40;49.90;;;;;;5047618;28;20202;-47
2024/03/12 05:07:54;;;;;;;0.00;0.00;;;24.50;50.00;;;;;;5046589;28;20309;-49
2024/03/12 05:10:27;;;;;;;0.00;0.00;;;24.40;49.90;;;;;;5031036;28;20806;-54
2024/03/12 05:12:57;;;;;;;0.00;0.00;;;24.50;49.90;;;;;;5028009;28;20231;-47
2024/03/12 05:15:28;;;;;;;0.00;0.00;;;24.50;49.90;;;;;;5041980;22;20243;-51
2024/03/12 05:17:59;;;;;;;0.00;0.00;;;24.50;49.90;;;;;;5027109;28;20734;-50
2024/03/12 05:20:33;;;;;;;0.00;0.00;;;24.50;49.80;;;;;;5026658;28;20219;-54
2024/03/12 05:23:04;;;;;;;0.00;0.00;;;24.50;49.80;;;;;;5027706;28;20204;-53
2024/03/12 05:25:41;;;;;;;0.00;0.00;;;24.50;49.80;;;;;;5027398;28;20203;-46
2024/03/12 05:28:12;;;;;;;0.00;0.00;;;24.50;49.80;;;;;;5027065;28;20227;-54
2024/03/12 05:30:42;;;;;;;0.00;0.00;;;24.50;49.80;;;;;;5027494;28;20220;-49
2024/03/12 05:33:14;;;;;;;0.00;0.00;;;24.50;49.80;;;;;;5026974;28;20200;-51
2024/03/12 05:35:51;;;;;;;0.00;0.00;;;24.50;49.70;;;;;;5027639;28;20243;-49
2024/03/12 05:38:32;;;;;;;0.00;0.00;;;24.50;49.70;;;;;;5027543;28;20242;-47
2024/03/12 05:41:25;;;;;;;0.00;0.00;;;24.50;49.70;;;;;;5027553;28;20248;-52
2024/03/12 05:49:29;;;;;;;0.00;0.00;;;24.50;49.60;;;;;;5027229;28;20199;-54
2024/03/12 05:51:59;;;;;;;0.00;0.00;;;24.50;49.60;;;;;;5027359;28;20231;-54
2024/03/12 05:54:30;;;;;;;0.00;0.00;;;24.50;49.70;;;;;;5027122;28;20215;-51
2024/03/12 05:57:02;;;;;;;0.00;0.00;;;24.50;49.60;;;;;;5028055;28;20208;-48
2024/03/12 05:59:33;;;;;;;0.00;0.00;;;24.50;49.60;;;;;;5030465;28;20200;-49
2024/03/12 06:02:04;;;;;;;0.00;0.00;;;24.50;49.60;;;;;;5030343;28;20220;-56
2024/03/12 06:04:34;;;;;;;0.00;0.00;;;24.50;49.60;;;;;;5030509;28;20196;-52
2024/03/12 06:07:05;;;;;;;0.00;0.00;;;24.50;49.60;;;;;;5030661;28;20216;-52
2024/03/12 06:09:36;;;;;;;0.00;0.00;;;24.50;49.60;;;;;;5032077;28;20200;-59
2024/03/12 06:12:09;;;;;;;0.00;0.00;;;24.50;49.60;;;;;;5034414;28;20216;-52
2024/03/12 06:14:39;;;;;;;0.00;0.00;;;24.50;49.50;;;;;;5045502;22;20224;-48
2024/03/12 06:17:10;;;;;;;0.00;0.00;;;24.50;49.50;;;;;;5034381;28;20211;-47
2024/03/12 06:19:41;;;;;;;0.00;0.00;;;24.50;49.50;;;;;;5034177;28;20204;-52
2024/03/12 06:22:11;;;;;;;0.10;0.10;;;24.50;49.50;;;;;;5033677;28;20581;-48
2024/03/12 06:24:42;;;;;;;0.00;0.00;;;24.50;49.50;;;;;;5033788;28;20262;-48
2024/03/12 06:27:14;;;;;;;0.00;0.00;;;24.50;49.40;;;;;;5033769;28;20748;-47
2024/03/12 06:29:49;;;;;;;0.00;0.00;;;24.40;49.30;;;;;;5033806;28;20246;-49
2024/03/12 06:32:20;;;;;;;0.00;0.00;;;24.40;49.30;;;;;;5034265;28;20277;-47
2024/03/12 06:34:51;;;;;;;0.00;0.00;;;24.50;49.30;;;;;;5033862;28;20227;-47
2024/03/12 06:37:23;;;;;;;0.00;0.00;;;24.50;49.20;;;;;;5033626;28;20196;-49
2024/03/12 06:39:54;;;;;;;0.00;0.00;;;24.40;49.20;;;;;;5033158;28;20644;-53
2024/03/12 06:42:29;;;;;;;0.00;0.00;;;24.40;49.20;;;;;;5033536;28;20231;-50
2024/03/12 06:45:00;;;;;;;0.03;0.03;;;24.40;49.20;;;;;;5033200;28;20250;-47
2024/03/12 06:47:36;;;;;;;0.00;0.00;;;24.40;49.30;;;;;;5033522;28;20220;-49
2024/03/12 06:50:10;;;;;;;0.00;0.00;;;24.40;49.30;;;;;;5013412;28;20283;-52
2024/03/12 06:52:40;;;;;;;0.00;0.00;;;24.40;49.30;;;;;;5013769;28;20228;-49
2024/03/12 06:55:12;;;;;;;0.05;0.05;;;24.40;49.30;;;;;;5025008;28;20656;-49
2024/03/12 06:57:47;;;;;;;0.00;0.00;;;24.30;49.20;;;;;;5033586;28;20204;-47
2024/03/12 07:00:26;;;;;;;0.00;0.00;;;24.30;49.20;;;;;;5033485;28;20192;-47
2024/03/12 07:02:57;;;;;;;0.10;0.10;;;24.40;49.20;;;;;;5033223;28;20290;-48
2024/03/12 07:05:29;;;;;;;0.00;0.00;;;24.30;49.10;;;;;;5032421;28;20202;-52
2024/03/12 07:08:00;;;;;;;0.00;0.00;;;24.30;49.10;;;;;;5033441;28;20255;-48
2024/03/12 07:10:30;;;;;;;0.05;0.05;;;24.30;49.10;;;;;;5032684;28;20203;-53
2024/03/12 07:13:04;;;;;;;0.00;0.00;;;24.30;49.10;;;;;;5032496;28;20204;-54
2024/03/12 07:15:34;;;;;;;0.10;0.10;;;24.30;49.10;;;;;;5032676;28;20192;-48
2024/03/12 07:18:06;;;;;;;0.00;0.00;;;24.30;49.10;;;;;;5033206;28;20196;-51
2024/03/12 07:20:36;;;;;;;0.00;0.00;;;24.30;49.00;;;;;;5031129;28;20667;-52
2024/03/12 07:23:07;;;;;;;0.00;0.00;;;24.30;49.00;;;;;;5032877;28;20655;-48
2024/03/12 07:25:38;;;;;;;0.00;0.00;;;24.30;49.00;;;;;;5033122;28;20207;-49
2024/03/12 07:28:12;;;;;;;0.00;0.00;;;24.30;49.00;;;;;;5033176;28;20228;-51
2024/03/12 07:30:45;;;;;;;0.00;0.00;;;24.30;49.00;;;;;;5031697;28;20215;-47
2024/03/12 07:33:16;;;;;;;0.00;0.00;;;24.30;49.00;;;;;;5029358;28;20184;-47
2024/03/12 07:35:46;;;;;;;0.00;0.00;;;24.20;49.10;;;;;;5031387;28;20188;-47
2024/03/12 07:38:17;;;;;;;0.00;0.00;;;24.20;49.20;;;;;;5029937;28;20215;-48
2024/03/12 07:40:48;;;;;;;0.00;0.00;;;24.20;49.20;;;;;;5028821;28;20278;-53
2024/03/12 07:43:20;;;;;;;0.00;0.00;;;24.20;49.20;;;;;;5029470;28;20200;-50
2024/03/12 07:45:51;;;;;;;0.00;0.00;;;24.20;49.20;;;;;;5028471;28;20287;-47
2024/03/12 07:48:23;;;;;;;0.00;0.00;;;24.20;49.20;;;;;;5029196;28;20228;-52
2024/03/12 07:50:55;;;;;;;0.00;0.00;;;24.20;49.20;;;;;;5029027;28;20311;-55
2024/03/12 07:53:28;;;;;;;0.00;0.00;;;24.20;49.20;;;;;;5029228;28;20230;-55
2024/03/12 07:56:00;;;;;;;0.00;0.00;;;24.20;49.20;;;;;;5028449;28;20262;-53
2024/03/12 07:58:33;;;;;;;0.00;0.00;;;24.20;49.20;;;;;;5028281;28;20262;-53
2024/03/12 08:01:04;;;;;;;0.00;0.00;;;24.20;49.10;;;;;;5028729;28;20757;-53
2024/03/12 08:03:36;;;;;;;0.00;0.00;;;24.20;49.10;;;;;;5027901;28;20639;-47
2024/03/12 08:06:07;;;;;;;0.00;0.00;;;24.20;49.10;;;;;;5028903;28;20291;-53
2024/03/12 08:08:38;;;;;;;0.00;0.00;;;24.20;49.10;;;;;;5028221;28;20228;-51
2024/03/12 08:11:09;;;;;;;0.00;0.00;;;24.20;49.10;;;;;;5027903;28;20215;-47
2024/03/12 08:13:41;;;;;;;0.00;0.00;;;24.20;49.10;;;;;;5028326;28;20603;-48
2024/03/12 08:16:12;;;;;;;0.03;0.03;;;24.20;49.10;;;;;;5029056;28;20211;-48
2024/03/12 08:18:42;;;;;;;0.10;0.10;;;24.20;49.10;;;;;;5027902;28;20200;-48
2024/03/12 08:21:13;;;;;;;0.00;0.00;;;24.10;49.00;;;;;;5028030;28;20216;-51
2024/03/12 08:23:44;;;;;;;0.00;0.00;;;24.10;49.00;;;;;;5028529;28;20203;-50
2024/03/12 08:26:14;;;;;;;0.03;0.03;;;24.10;49.00;;;;;;5027798;28;20686;-51
2024/03/12 08:28:47;;;;;;;0.00;0.00;;;24.10;49.00;;;;;;5027327;28;20228;-48
2024/03/12 08:31:17;;;;;;;0.00;0.00;;;24.10;49.00;;;;;;5027524;28;20220;-54
2024/03/12 08:33:48;;;;;;;0.00;0.00;;;24.10;49.00;;;;;;5027541;28;20192;-49
2024/03/12 08:36:19;;;;;;;0.00;0.00;;;24.00;49.00;;;;;;5028131;28;20606;-48
2024/03/12 08:38:50;;;;;;;0.00;0.00;;;24.00;49.00;;;;;;5027362;28;20249;-51
2024/03/12 08:41:20;;;;;;;0.00;0.00;;;24.00;49.00;;;;;;5027388;28;20224;-50
2024/03/12 08:43:53;;;;;;;0.10;0.10;;;24.00;49.00;;;;;;5027227;28;20207;-52
2024/03/12 08:46:24;;;;;;;0.10;0.10;;;24.00;49.00;;;;;;5027901;28;20199;-53
2024/03/12 08:48:55;;;;;;;0.00;0.00;;;24.00;49.00;;;;;;5007659;28;20316;-53
2024/03/12 08:51:25;;;;;;;0.00;0.00;;;24.00;48.90;;;;;;5008736;28;20274;-52
2024/03/12 08:53:56;;;;;;;0.00;0.00;;;24.00;48.90;;;;;;5020485;28;20199;-48
2024/03/12 08:56:26;;;;;;;0.00;0.00;;;24.00;49.00;;;;;;5028032;28;20540;-53
2024/03/12 08:58:59;;;;;;;0.00;0.00;;;24.00;49.00;;;;;;5028050;28;20451;-47
2024/03/12 09:01:31;;;;;;;0.00;0.00;;;23.90;48.90;;;;;;5027248;28;20274;-47
2024/03/12 09:04:02;;;;;;;0.00;0.00;;;23.90;48.90;;;;;;5027831;28;20204;-57
2024/03/12 09:06:33;;;;;;;0.00;0.00;;;23.90;48.90;;;;;;5027935;28;20196;-50
2024/03/12 09:09:04;;;;;;;0.00;0.00;;;23.90;48.90;;;;;;5027582;28;20785;-52
2024/03/12 09:11:38;;;;;;;0.00;0.00;;;23.90;48.90;;;;;;5026913;28;20767;-50
2024/03/12 09:16:39;;;;;;;0.00;0.00;;;23.90;48.90;;;;;;4983964;28;20221;-44
2024/03/12 09:19:10;;;;;;;0.00;0.00;;;23.80;48.90;;;;;;4987670;28;20606;-46
2024/03/12 09:21:41;;;;;;;0.10;0.10;;;23.90;48.90;;;;;;4998362;28;20636;-50
2024/03/12 09:24:15;;;;;;;0.10;0.10;;;23.80;48.90;;;;;;5005380;28;20233;-46
2024/03/12 09:26:46;;;;;;;0.00;0.00;;;23.80;48.90;;;;;;4988120;28;20599;-45
2024/03/12 09:29:16;;;;;;;0.00;0.00;;;23.80;48.90;;;;;;5022151;28;20236;-45
2024/03/12 09:31:49;;;;;;;0.10;0.10;;;23.80;49.00;;;;;;5027787;28;20220;-44
2024/03/12 09:34:19;;;;;;;0.00;0.00;;;23.80;48.90;;;;;;5026588;28;20663;-44
2024/03/12 09:36:50;;;;;;;0.00;0.00;;;23.80;49.00;;;;;;5015043;28;20772;-48
2024/03/12 09:39:23;;;;;;;0.00;0.00;;;23.80;48.90;;;;;;5007415;28;20258;-46
2024/03/12 09:41:56;;;;;;;0.00;0.00;;;23.80;49.00;;;;;;5004140;28;20220;-44
2024/03/12 09:44:27;;;;;;;0.00;0.00;;;23.80;48.90;;;;;;5027763;28;20571;-45
2024/03/12 09:47:00;;;;;;;0.03;0.03;;;23.80;48.90;;;;;;5031517;28;20196;-51
2024/03/12 09:49:32;;;;;;;0.00;0.00;;;23.70;48.90;;;;;;5029835;28;20235;-46
2024/03/12 09:52:03;;;;;;;0.00;0.00;;;23.70;48.90;;;;;;5029965;28;20223;-45
2024/03/12 09:54:34;;;;;;;0.00;0.00;;;23.70;48.90;;;;;;5024372;28;20611;-47
2024/03/12 09:57:05;;;;;;;0.00;0.00;;;23.80;49.00;;;;;;5025838;28;20203;-47
2024/03/12 09:59:36;;;;;;;0.00;0.00;;;23.70;48.90;;;;;;5029901;28;20204;-47
2024/03/12 10:02:09;;;;;;;0.10;0.10;;;23.70;48.90;;;;;;5029202;28;20220;-50
2024/03/12 10:04:40;;;;;;;0.00;0.00;;;23.70;48.90;;;;;;5029216;28;20266;-47
2024/03/12 10:07:10;;;;;;;0.00;0.00;;;23.70;48.90;;;;;;5029422;28;20200;-48
2024/03/12 10:09:42;;;;;;;0.00;0.00;;;23.70;48.90;;;;;;5030548;28;20302;-47
2024/03/12 10:12:13;;;;;;;0.10;0.10;;;23.70;48.90;;;;;;5030523;28;20223;-47
2024/03/12 10:14:47;;;;;;;0.00;0.00;;;23.70;48.90;;;;;;5030958;28;20277;-50
2024/03/12 10:17:20;;;;;;;0.00;0.00;;;23.70;48.90;;;;;;5030207;28;20250;-44
2024/03/12 10:19:51;;;;;;;0.00;0.00;;;23.60;48.80;;;;;;5031021;28;20204;-45
2024/03/12 10:22:22;;;;;;;0.00;0.00;;;23.60;48.80;;;;;;5025046;28;20220;-45
2024/03/12 10:24:54;;;;;;;0.00;0.00;;;23.70;48.90;;;;;;5009368;28;20198;-46
2024/03/12 10:27:24;;;;;;;0.00;0.00;;;23.60;48.80;;;;;;4994902;28;20201;-45
2024/03/12 10:29:55;;;;;;;0.10;0.10;;;23.60;48.80;;;;;;4994527;28;20284;-46
2024/03/12 10:32:28;;;;;;;0.00;0.00;;;23.60;48.80;;;;;;4994698;28;20218;-45
2024/03/12 10:34:59;;;;;;;0.00;0.00;;;23.60;48.80;;;;;;4995047;28;20362;-46
2024/03/12 10:37:32;;;;;;;0.03;0.03;;;23.60;48.80;;;;;;4994870;28;20209;-45
2024/03/12 10:40:17;;;;;;;0.00;0.00;;;23.60;48.80;;;;;;5012104;28;20201;-44
2024/03/12 10:42:57;;;;;;;0.00;0.00;;;23.60;48.80;;;;;;5014451;28;20555;-52
2024/03/12 10:45:29;;;;;;;0.10;0.10;;;23.60;48.70;;;;;;5013858;28;20204;-48
2024/03/12 10:48:02;;;;;;;0.08;0.08;;;23.60;48.70;;;;;;5011955;28;20192;-45
2024/03/12 10:50:34;;;;;;;0.00;0.00;;;23.60;48.70;;;;;;5004625;28;20223;-47
2024/03/12 10:53:07;;;;;;;0.00;0.00;;;23.60;48.70;;;;;;5004423;28;20204;-45
2024/03/12 10:55:38;;;;;;;0.00;0.00;;;23.60;48.80;;;;;;5003888;28;20193;-48
2024/03/12 10:58:11;;;;;;;0.00;0.00;;;23.60;48.80;;;;;;5004396;28;20196;-48
2024/03/12 11:00:42;;;;;;;0.00;0.00;;;23.60;48.80;;;;;;5003440;28;20217;-47
2024/03/12 11:03:17;;;;;;;0.10;0.10;;;23.60;48.80;;;;;;5002390;28;20197;-46
2024/03/12 11:05:48;;;;;;;0.03;0.03;;;23.50;48.80;;;;;;5002532;28;20193;-48
2024/03/12 11:08:19;;;;;;;0.10;0.10;;;23.60;48.70;;;;;;5003285;28;20189;-46
2024/03/12 11:10:51;;;;;;;0.00;0.00;;;23.60;48.70;;;;;;5003914;28;20221;-45
2024/03/12 11:13:23;;;;;;;0.00;0.00;;;23.60;48.70;;;;;;5003216;28;20583;-47
2024/03/12 11:15:57;;;;;;;0.03;0.03;;;23.60;48.70;;;;;;5021791;23;20714;-49
2024/03/12 11:18:40;;;;;;;0.10;0.10;;;23.60;48.70;;;;;;5012483;28;20200;-49
2024/03/12 11:21:15;;;;;;;0.05;0.05;;;23.50;48.60;;;;;;5009332;28;20209;-54
2024/03/12 11:23:46;;;;;;;0.00;0.00;;;23.50;48.60;;;;;;5002910;28;20219;-50
2024/03/12 11:26:18;;;;;;;0.10;0.10;;;23.60;48.60;;;;;;4998400;28;20621;-50
2024/03/12 11:28:54;;;;;;;0.00;0.00;;;23.60;48.60;;;;;;4993212;28;20225;-50
2024/03/12 11:31:25;;;;;;;0.00;0.00;;;23.60;48.50;;;;;;4993184;28;20662;-47
2024/03/12 11:33:57;;;;;;;0.00;0.00;;;23.60;48.60;;;;;;4993181;28;20605;-49
2024/03/12 11:36:34;;;;;;;0.03;0.03;;;23.50;48.50;;;;;;4992595;28;20679;-47
2024/03/12 11:39:11;;;;;;;0.00;0.00;;;23.50;48.50;;;;;;4992450;28;20201;-49
2024/03/12 11:42:17;;;;;;;0.00;0.00;;;23.50;48.50;;;;;;4992960;28;20229;-51
2024/03/12 11:44:52;;;;;;;0.00;0.00;;;23.50;48.50;;;;;;4999350;28;20243;-55
2024/03/12 11:47:34;;;;;;;0.00;0.00;;;23.50;48.50;;;;;;5007025;28;20199;-58
2024/03/12 11:50:27;;;;;;;0.00;0.00;;;23.50;48.50;;;;;;5001097;28;20769;-48
2024/03/12 11:53:15;;;;;;;0.00;0.00;;;23.50;49.10;;;;;;5001063;28;20658;-52
2024/03/12 11:56:18;;;;;;;0.08;0.08;;;23.50;48.50;;;;;;5000157;28;20201;-56
2024/03/12 11:58:53;;;;;;;0.00;0.00;;;23.50;48.60;;;;;;4993806;28;20247;-51
2024/03/12 12:01:28;;;;;;;0.08;0.08;;;23.50;48.50;;;;;;5003120;28;20297;-52
2024/03/12 12:04:00;;;;;;;0.00;0.00;;;23.50;48.50;;;;;;5001093;28;20195;-48
2024/03/12 12:06:33;;;;;;;0.00;0.00;;;23.50;48.60;;;;;;4998147;28;20190;-51
2024/03/12 12:09:06;;;;;;;0.00;0.00;;;23.50;48.50;;;;;;5000750;28;20212;-52
2024/03/12 12:11:39;;;;;;;0.00;0.00;;;23.50;48.50;;;;;;5000094;28;20214;-55
2024/03/12 12:16:46;;;;;;;0.00;0.00;;;23.50;48.40;;;;;;5021883;28;20659;-48
2024/03/12 12:19:17;;;;;;;0.00;0.00;;;23.50;48.40;;;;;;5017299;28;20227;-48
2024/03/12 12:21:51;;;;;;;0.10;0.10;;;23.50;48.40;;;;;;5012309;28;20217;-48
2024/03/12 12:24:26;;;;;;;0.00;0.00;;;23.50;48.40;;;;;;5016336;28;20207;-52
2024/03/12 12:26:57;;;;;;;0.00;0.00;;;23.50;48.30;;;;;;5032230;28;20196;-47
2024/03/12 12:29:30;;;;;;;0.00;0.00;;;23.50;48.30;;;;;;5029296;28;20232;-47
2024/03/12 12:32:01;;;;;;;0.00;0.00;;;23.50;48.20;;;;;;5012027;28;20227;-48
2024/03/12 12:34:32;;;;;;;0.00;0.00;;;23.50;48.20;;;;;;5012291;28;20200;-49
2024/03/12 12:37:09;;;;;;;0.00;0.00;;;23.50;48.10;;;;;;5013665;28;20189;-49
2024/03/12 12:39:40;;;;;;;0.00;0.00;;;23.50;48.00;;;;;;5011881;28;20231;-48
2024/03/12 12:42:11;;;;;;;0.10;0.10;;;23.50;47.90;;;;;;5012001;28;20232;-48
2024/03/12 12:44:42;;;;;;;0.10;0.10;;;23.50;47.90;;;;;;5011966;28;20212;-47
2024/03/12 12:47:14;;;;;;;0.00;0.00;;;23.50;47.80;;;;;;5011921;28;20193;-49
2024/03/12 12:49:46;;;;;;;0.10;0.10;;;23.50;47.70;;;;;;5011620;28;20229;-51
2024/03/12 12:52:20;;;;;;;0.05;0.05;;;23.50;47.70;;;;;;5011663;28;20217;-47
2024/03/12 12:54:59;;;;;;;0.00;0.00;;;23.50;47.90;;;;;;5019886;28;20476;-47
2024/03/12 12:57:34;;;;;;;0.08;0.08;;;23.50;47.50;;;;;;5031424;28;20287;-48
2024/03/12 13:00:15;;;;;;;0.00;0.00;;;23.50;47.50;;;;;;5031347;28;20656;-49
2024/03/12 13:02:46;;;;;;;0.10;0.10;;;23.50;47.50;;;;;;5031319;28;20239;-48
2024/03/12 13:05:23;;;;;;;0.00;0.00;;;23.50;47.40;;;;;;5031611;28;20255;-45
2024/03/12 13:07:55;;;;;;;0.00;0.00;;;23.50;47.40;;;;;;5031721;28;20605;-46
2024/03/12 13:10:26;;;;;;;0.10;0.10;;;23.50;47.30;;;;;;5031050;28;20228;-48
2024/03/12 13:12:57;;;;;;;0.10;0.10;;;23.50;47.30;;;;;;5029303;28;20196;-49
2024/03/12 13:15:33;;;;;;;0.00;0.00;;;23.50;47.20;;;;;;5031421;28;20208;-51
2024/03/12 13:18:04;;;;;;;0.00;0.00;;;23.50;47.10;;;;;;5031115;28;20617;-49
2024/03/12 13:20:35;;;;;;;0.03;0.03;;;23.50;47.10;;;;;;5031609;28;20258;-48
2024/03/12 13:23:08;;;;;;;0.00;0.00;;;23.50;47.10;;;;;;5015542;28;20514;-47
2024/03/12 13:25:39;;;;;;;0.10;0.10;;;23.50;47.10;;;;;;5029293;28;20211;-48